sensor_id;sensor_type;location;lat;lon;timestamp;P1;durP1;ratioP1;P2;durP2;ratioP2
51438;SDS011;38816;51.142;-0.974;2024-03-23T00:55:37;132.68;;;123.68;;
51438;SDS011;38816;51.142;-0.974;2024-03-23T00:58:02;118.45;;;110.55;;
51438;SDS011;38816;51.142;-0.974;2024-03-23T01:00:28;129.73;;;121.05;;
51438;SDS011;38816;51.142;-0.974;2024-03-23T01:02:53;121.07;;;112.22;;
51438;SDS011;38816;51.142;-0.974;2024-03-23T01:05:19;113.18;;;105.13;;
51438;SDS011;38816;51.142;-0.974;2024-03-23T01:07:44;117.60;;;109.38;;
51438;SDS011;38816;51.142;-0.974;2024-03-23T01:10:10;113.40;;;105.53;;
51438;SDS011;38816;51.142;-0.974;2024-03-23T01:12:35;124.85;;;115.57;;
51438;SDS011;38816;51.142;-0.974;2024-03-23T01:15:01;131.85;;;122.45;;
51438;SDS011;38816;51.142;-0.974;2024-03-23T01:17:26;124.72;;;116.25;;
51438;SDS011;38816;51.142;-0.974;2024-03-23T01:19:51;121.45;;;112.97;;
51438;SDS011;38816;51.142;-0.974;2024-03-23T01:22:17;119.88;;;111.53;;
51438;SDS011;38816;51.142;-0.974;2024-03-23T01:24:43;118.47;;;109.95;;
51438;SDS011;38816;51.142;-0.974;2024-03-23T01:27:08;127.80;;;118.68;;
51438;SDS011;38816;51.142;-0.974;2024-03-23T01:29:34;129.95;;;121.05;;
51438;SDS011;38816;51.142;-0.974;2024-03-23T01:31:59;129.05;;;119.50;;
51438;SDS011;38816;51.142;-0.974;2024-03-23T01:34:25;125.70;;;117.18;;
51438;SDS011;38816;51.142;-0.974;2024-03-23T01:36:51;119.55;;;111.30;;
51438;SDS011;38816;51.142;-0.974;2024-03-23T01:39:16;119.57;;;110.93;;
51438;SDS011;38816;51.142;-0.974;2024-03-23T01:41:42;110.30;;;102.72;;
51438;SDS011;38816;51.142;-0.974;2024-03-23T01:44:08;153.25;;;142.70;;
51438;SDS011;38816;51.142;-0.974;2024-03-23T01:46:37;146.63;;;136.50;;
51438;SDS011;38816;51.142;-0.974;2024-03-23T01:49:07;137.07;;;127.68;;
51438;SDS011;38816;51.142;-0.974;2024-03-23T01:51:36;140.23;;;130.30;;
51438;SDS011;38816;51.142;-0.974;2024-03-23T01:54:02;139.48;;;129.88;;
51438;SDS011;38816;51.142;-0.974;2024-03-23T01:56:29;143.25;;;133.07;;
51438;SDS011;38816;51.142;-0.974;2024-03-23T01:59:04;125.43;;;116.32;;
51438;SDS011;38816;51.142;-0.974;2024-03-23T02:01:31;115.22;;;106.88;;
51438;SDS011;38816;51.142;-0.974;2024-03-23T02:03:57;117.95;;;110.10;;
51438;SDS011;38816;51.142;-0.974;2024-03-23T02:06:26;128.05;;;118.72;;
51438;SDS011;38816;51.142;-0.974;2024-03-23T02:08:51;138.90;;;129.07;;
51438;SDS011;38816;51.142;-0.974;2024-03-23T02:11:18;111.55;;;103.57;;
51438;SDS011;38816;51.142;-0.974;2024-03-23T02:13:46;121.22;;;112.78;;
51438;SDS011;38816;51.142;-0.974;2024-03-23T02:16:11;128.38;;;119.28;;
51438;SDS011;38816;51.142;-0.974;2024-03-23T02:18:38;115.72;;;107.60;;
51438;SDS011;38816;51.142;-0.974;2024-03-23T02:21:04;131.20;;;122.05;;
51438;SDS011;38816;51.142;-0.974;2024-03-23T02:23:29;139.32;;;129.02;;
51438;SDS011;38816;51.142;-0.974;2024-03-23T02:25:55;111.53;;;103.88;;
51438;SDS011;38816;51.142;-0.974;2024-03-23T02:28:20;111.85;;;103.82;;
51438;SDS011;38816;51.142;-0.974;2024-03-23T02:30:47;135.93;;;126.55;;
51438;SDS011;38816;51.142;-0.974;2024-03-23T02:33:16;109.88;;;101.95;;
51438;SDS011;38816;51.142;-0.974;2024-03-23T02:35:43;143.45;;;132.85;;
51438;SDS011;38816;51.142;-0.974;2024-03-23T02:38:09;128.63;;;119.47;;
51438;SDS011;38816;51.142;-0.974;2024-03-23T02:40:34;113.55;;;105.45;;
51438;SDS011;38816;51.142;-0.974;2024-03-23T02:43:00;122.80;;;114.53;;
51438;SDS011;38816;51.142;-0.974;2024-03-23T02:45:25;108.20;;;100.65;;
51438;SDS011;38816;51.142;-0.974;2024-03-23T02:47:51;112.32;;;104.63;;
51438;SDS011;38816;51.142;-0.974;2024-03-23T02:50:17;142.02;;;132.43;;
51438;SDS011;38816;51.142;-0.974;2024-03-23T02:52:44;119.95;;;111.63;;
51438;SDS011;38816;51.142;-0.974;2024-03-23T02:55:09;118.40;;;110.25;;
51438;SDS011;38816;51.142;-0.974;2024-03-23T02:57:38;135.43;;;125.80;;
51438;SDS011;38816;51.142;-0.974;2024-03-23T03:00:03;125.22;;;116.53;;
51438;SDS011;38816;51.142;-0.974;2024-03-23T03:02:31;143.65;;;133.35;;
51438;SDS011;38816;51.142;-0.974;2024-03-23T03:04:57;122.95;;;114.60;;
51438;SDS011;38816;51.142;-0.974;2024-03-23T03:07:22;123.50;;;114.80;;
51438;SDS011;38816;51.142;-0.974;2024-03-23T03:09:47;155.48;;;144.57;;
51438;SDS011;38816;51.142;-0.974;2024-03-23T03:12:13;131.07;;;121.32;;
51438;SDS011;38816;51.142;-0.974;2024-03-23T03:14:38;146.57;;;136.00;;
51438;SDS011;38816;51.142;-0.974;2024-03-23T03:17:04;115.63;;;107.38;;
51438;SDS011;38816;51.142;-0.974;2024-03-23T03:19:29;142.27;;;132.13;;
51438;SDS011;38816;51.142;-0.974;2024-03-23T03:21:55;136.60;;;126.47;;
51438;SDS011;38816;51.142;-0.974;2024-03-23T03:24:21;133.25;;;124.38;;
51438;SDS011;38816;51.142;-0.974;2024-03-23T03:26:46;152.27;;;141.57;;
51438;SDS011;38816;51.142;-0.974;2024-03-23T03:29:12;115.25;;;107.00;;
51438;SDS011;38816;51.142;-0.974;2024-03-23T03:31:38;136.82;;;127.13;;
51438;SDS011;38816;51.142;-0.974;2024-03-23T03:34:04;139.77;;;129.90;;
51438;SDS011;38816;51.142;-0.974;2024-03-23T03:36:29;119.90;;;111.03;;
51438;SDS011;38816;51.142;-0.974;2024-03-23T03:38:55;130.23;;;121.18;;
51438;SDS011;38816;51.142;-0.974;2024-03-23T03:41:20;121.57;;;112.57;;
51438;SDS011;38816;51.142;-0.974;2024-03-23T03:43:46;147.38;;;137.02;;
51438;SDS011;38816;51.142;-0.974;2024-03-23T03:46:11;146.50;;;135.85;;
51438;SDS011;38816;51.142;-0.974;2024-03-23T03:48:37;121.40;;;112.80;;
51438;SDS011;38816;51.142;-0.974;2024-03-23T03:51:03;115.47;;;106.50;;
51438;SDS011;38816;51.142;-0.974;2024-03-23T03:53:29;125.97;;;116.95;;
51438;SDS011;38816;51.142;-0.974;2024-03-23T03:55:55;121.00;;;113.00;;
51438;SDS011;38816;51.142;-0.974;2024-03-23T03:58:20;129.90;;;120.00;;
51438;SDS011;38816;51.142;-0.974;2024-03-23T04:00:46;121.82;;;112.93;;
51438;SDS011;38816;51.142;-0.974;2024-03-23T04:03:11;145.05;;;134.23;;
51438;SDS011;38816;51.142;-0.974;2024-03-23T04:05:37;129.85;;;120.43;;
51438;SDS011;38816;51.142;-0.974;2024-03-23T04:08:03;127.05;;;117.68;;
51438;SDS011;38816;51.142;-0.974;2024-03-23T04:10:29;112.10;;;104.10;;
51438;SDS011;38816;51.142;-0.974;2024-03-23T04:12:55;128.27;;;118.88;;
51438;SDS011;38816;51.142;-0.974;2024-03-23T04:15:20;133.07;;;123.63;;
51438;SDS011;38816;51.142;-0.974;2024-03-23T04:17:46;134.13;;;124.63;;
51438;SDS011;38816;51.142;-0.974;2024-03-23T04:20:12;132.30;;;122.38;;
51438;SDS011;38816;51.142;-0.974;2024-03-23T04:22:41;146.90;;;136.80;;
51438;SDS011;38816;51.142;-0.974;2024-03-23T04:25:08;121.53;;;111.97;;
51438;SDS011;38816;51.142;-0.974;2024-03-23T04:27:33;123.90;;;115.05;;
51438;SDS011;38816;51.142;-0.974;2024-03-23T04:29:58;143.15;;;131.98;;
51438;SDS011;38816;51.142;-0.974;2024-03-23T04:32:26;134.57;;;124.88;;
51438;SDS011;38816;51.142;-0.974;2024-03-23T04:34:51;143.07;;;132.55;;
51438;SDS011;38816;51.142;-0.974;2024-03-23T04:37:17;133.45;;;123.32;;
51438;SDS011;38816;51.142;-0.974;2024-03-23T04:39:43;120.55;;;111.45;;
51438;SDS011;38816;51.142;-0.974;2024-03-23T04:42:08;121.05;;;112.10;;
51438;SDS011;38816;51.142;-0.974;2024-03-23T04:44:34;141.38;;;131.45;;
51438;SDS011;38816;51.142;-0.974;2024-03-23T04:47:00;132.38;;;123.22;;
51438;SDS011;38816;51.142;-0.974;2024-03-23T04:49:25;126.00;;;117.07;;
51438;SDS011;38816;51.142;-0.974;2024-03-23T04:51:51;132.13;;;122.70;;
51438;SDS011;38816;51.142;-0.974;2024-03-23T04:54:16;138.23;;;128.48;;
51438;SDS011;38816;51.142;-0.974;2024-03-23T04:56:42;131.45;;;122.40;;
51438;SDS011;38816;51.142;-0.974;2024-03-23T04:59:07;121.95;;;113.28;;
51438;SDS011;38816;51.142;-0.974;2024-03-23T05:01:34;138.60;;;127.38;;
51438;SDS011;38816;51.142;-0.974;2024-03-23T05:03:59;124.10;;;114.88;;
51438;SDS011;38816;51.142;-0.974;2024-03-23T05:06:25;142.30;;;132.02;;
51438;SDS011;38816;51.142;-0.974;2024-03-23T05:08:51;126.18;;;116.10;;
51438;SDS011;38816;51.142;-0.974;2024-03-23T05:11:17;126.78;;;117.05;;
51438;SDS011;38816;51.142;-0.974;2024-03-23T05:13:43;113.45;;;104.75;;
51438;SDS011;38816;51.142;-0.974;2024-03-23T05:16:09;134.27;;;124.57;;
51438;SDS011;38816;51.142;-0.974;2024-03-23T05:18:34;139.80;;;129.65;;
51438;SDS011;38816;51.142;-0.974;2024-03-23T05:21:00;117.90;;;109.05;;
51438;SDS011;38816;51.142;-0.974;2024-03-23T05:23:26;133.50;;;124.07;;
51438;SDS011;38816;51.142;-0.974;2024-03-23T05:25:54;135.02;;;124.78;;
51438;SDS011;38816;51.142;-0.974;2024-03-23T05:28:20;141.55;;;130.90;;
51438;SDS011;38816;51.142;-0.974;2024-03-23T05:30:55;123.28;;;113.85;;
51438;SDS011;38816;51.142;-0.974;2024-03-23T05:33:22;135.05;;;124.75;;
51438;SDS011;38816;51.142;-0.974;2024-03-23T05:35:55;137.98;;;128.13;;
51438;SDS011;38816;51.142;-0.974;2024-03-23T05:38:24;127.20;;;117.93;;
51438;SDS011;38816;51.142;-0.974;2024-03-23T05:40:53;133.88;;;124.28;;
51438;SDS011;38816;51.142;-0.974;2024-03-23T05:43:25;133.68;;;124.00;;
51438;SDS011;38816;51.142;-0.974;2024-03-23T05:45:55;131.13;;;121.85;;
51438;SDS011;38816;51.142;-0.974;2024-03-23T05:48:21;142.48;;;131.88;;
51438;SDS011;38816;51.142;-0.974;2024-03-23T05:50:47;140.98;;;130.65;;
51438;SDS011;38816;51.142;-0.974;2024-03-23T05:53:14;128.98;;;119.10;;
51438;SDS011;38816;51.142;-0.974;2024-03-23T05:55:40;121.70;;;112.90;;
51438;SDS011;38816;51.142;-0.974;2024-03-23T05:58:06;136.35;;;126.20;;
51438;SDS011;38816;51.142;-0.974;2024-03-23T06:00:31;124.45;;;115.07;;
51438;SDS011;38816;51.142;-0.974;2024-03-23T06:02:57;115.78;;;106.72;;
51438;SDS011;38816;51.142;-0.974;2024-03-23T06:05:22;131.27;;;121.75;;
51438;SDS011;38816;51.142;-0.974;2024-03-23T06:07:48;133.30;;;124.10;;
51438;SDS011;38816;51.142;-0.974;2024-03-23T06:10:15;142.70;;;131.50;;
51438;SDS011;38816;51.142;-0.974;2024-03-23T06:12:41;122.70;;;113.25;;
51438;SDS011;38816;51.142;-0.974;2024-03-23T06:15:06;144.88;;;134.35;;
51438;SDS011;38816;51.142;-0.974;2024-03-23T06:17:35;123.43;;;114.07;;
51438;SDS011;38816;51.142;-0.974;2024-03-23T06:20:01;119.18;;;110.75;;
51438;SDS011;38816;51.142;-0.974;2024-03-23T06:22:27;140.25;;;129.60;;
51438;SDS011;38816;51.142;-0.974;2024-03-23T06:24:53;119.22;;;110.47;;
51438;SDS011;38816;51.142;-0.974;2024-03-23T06:27:18;129.75;;;120.20;;
51438;SDS011;38816;51.142;-0.974;2024-03-23T06:29:44;118.03;;;109.35;;
51438;SDS011;38816;51.142;-0.974;2024-03-23T06:32:09;125.32;;;116.10;;
51438;SDS011;38816;51.142;-0.974;2024-03-23T06:34:34;114.03;;;105.53;;
51438;SDS011;38816;51.142;-0.974;2024-03-23T06:37:00;106.80;;;97.80;;
51438;SDS011;38816;51.142;-0.974;2024-03-23T06:39:25;122.70;;;113.10;;
51438;SDS011;38816;51.142;-0.974;2024-03-23T06:41:51;134.48;;;124.43;;
51438;SDS011;38816;51.142;-0.974;2024-03-23T06:44:18;117.88;;;109.03;;
51438;SDS011;38816;51.142;-0.974;2024-03-23T06:46:44;102.75;;;94.22;;
51438;SDS011;38816;51.142;-0.974;2024-03-23T06:49:10;135.55;;;125.75;;
51438;SDS011;38816;51.142;-0.974;2024-03-23T06:51:36;112.72;;;104.15;;
51438;SDS011;38816;51.142;-0.974;2024-03-23T06:54:03;137.75;;;127.53;;
51438;SDS011;38816;51.142;-0.974;2024-03-23T06:56:29;105.38;;;97.07;;
51438;SDS011;38816;51.142;-0.974;2024-03-23T06:58:54;97.82;;;89.95;;
51438;SDS011;38816;51.142;-0.974;2024-03-23T07:01:20;111.57;;;102.75;;
51438;SDS011;38816;51.142;-0.974;2024-03-23T07:03:46;123.28;;;114.22;;
51438;SDS011;38816;51.142;-0.974;2024-03-23T07:06:11;122.82;;;113.57;;
51438;SDS011;38816;51.142;-0.974;2024-03-23T07:08:37;118.72;;;109.72;;
51438;SDS011;38816;51.142;-0.974;2024-03-23T07:11:02;113.45;;;105.22;;
51438;SDS011;38816;51.142;-0.974;2024-03-23T07:13:28;110.22;;;100.95;;
51438;SDS011;38816;51.142;-0.974;2024-03-23T07:15:56;132.35;;;122.47;;
51438;SDS011;38816;51.142;-0.974;2024-03-23T07:18:23;117.80;;;109.25;;
51438;SDS011;38816;51.142;-0.974;2024-03-23T07:20:55;110.40;;;101.78;;
51438;SDS011;38816;51.142;-0.974;2024-03-23T07:23:21;124.53;;;115.10;;
51438;SDS011;38816;51.142;-0.974;2024-03-23T07:28:43;108.95;;;100.53;;
51438;SDS011;38816;51.142;-0.974;2024-03-23T07:31:11;123.93;;;114.20;;
51438;SDS011;38816;51.142;-0.974;2024-03-23T07:33:42;111.30;;;101.97;;
51438;SDS011;38816;51.142;-0.974;2024-03-23T07:36:09;116.43;;;107.53;;
51438;SDS011;38816;51.142;-0.974;2024-03-23T07:38:35;112.78;;;103.85;;
51438;SDS011;38816;51.142;-0.974;2024-03-23T07:41:04;120.72;;;111.82;;
51438;SDS011;38816;51.142;-0.974;2024-03-23T07:43:30;128.75;;;118.47;;
51438;SDS011;38816;51.142;-0.974;2024-03-23T07:45:56;134.07;;;122.97;;
51438;SDS011;38816;51.142;-0.974;2024-03-23T07:48:22;111.82;;;103.72;;
51438;SDS011;38816;51.142;-0.974;2024-03-23T07:51:09;119.07;;;110.15;;
51438;SDS011;38816;51.142;-0.974;2024-03-23T07:53:36;132.05;;;122.93;;
51438;SDS011;38816;51.142;-0.974;2024-03-23T07:56:06;124.00;;;114.43;;
51438;SDS011;38816;51.142;-0.974;2024-03-23T07:58:33;121.78;;;111.95;;
51438;SDS011;38816;51.142;-0.974;2024-03-23T08:01:06;143.90;;;133.43;;
51438;SDS011;38816;51.142;-0.974;2024-03-23T08:03:36;146.93;;;135.85;;
51438;SDS011;38816;51.142;-0.974;2024-03-23T08:06:19;123.90;;;114.47;;
51438;SDS011;38816;51.142;-0.974;2024-03-23T08:08:45;143.37;;;133.00;;
51438;SDS011;38816;51.142;-0.974;2024-03-23T08:11:12;146.57;;;135.38;;
51438;SDS011;38816;51.142;-0.974;2024-03-23T08:13:38;151.50;;;140.73;;
51438;SDS011;38816;51.142;-0.974;2024-03-23T08:16:05;140.73;;;129.57;;
51438;SDS011;38816;51.142;-0.974;2024-03-23T08:18:31;159.80;;;147.20;;
51438;SDS011;38816;51.142;-0.974;2024-03-23T08:21:00;183.38;;;170.10;;
51438;SDS011;38816;51.142;-0.974;2024-03-23T08:23:27;171.93;;;159.35;;
51438;SDS011;38816;51.142;-0.974;2024-03-23T08:28:48;131.75;;;122.30;;
51438;SDS011;38816;51.142;-0.974;2024-03-23T08:31:13;135.30;;;124.97;;
51438;SDS011;38816;51.142;-0.974;2024-03-23T08:33:42;175.55;;;162.80;;
51438;SDS011;38816;51.142;-0.974;2024-03-23T08:36:08;165.02;;;152.88;;
51438;SDS011;38816;51.142;-0.974;2024-03-23T08:38:37;136.10;;;125.45;;
51438;SDS011;38816;51.142;-0.974;2024-03-23T08:41:04;139.75;;;129.70;;
51438;SDS011;38816;51.142;-0.974;2024-03-23T08:43:40;119.55;;;111.15;;
51438;SDS011;38816;51.142;-0.974;2024-03-23T08:46:10;141.70;;;130.63;;
51438;SDS011;38816;51.142;-0.974;2024-03-23T08:51:08;123.90;;;114.68;;
51438;SDS011;38816;51.142;-0.974;2024-03-23T08:53:35;141.35;;;131.30;;
51438;SDS011;38816;51.142;-0.974;2024-03-23T08:56:01;158.32;;;146.77;;
51438;SDS011;38816;51.142;-0.974;2024-03-23T08:58:28;175.20;;;162.77;;
51438;SDS011;38816;51.142;-0.974;2024-03-23T09:00:54;142.57;;;131.93;;
51438;SDS011;38816;51.142;-0.974;2024-03-23T09:03:24;178.68;;;166.32;;
51438;SDS011;38816;51.142;-0.974;2024-03-23T09:05:53;131.05;;;121.60;;
51438;SDS011;38816;51.142;-0.974;2024-03-23T09:08:20;186.55;;;173.45;;
51438;SDS011;38816;51.142;-0.974;2024-03-23T09:10:46;170.73;;;158.25;;
51438;SDS011;38816;51.142;-0.974;2024-03-23T09:13:13;143.90;;;133.70;;
51438;SDS011;38816;51.142;-0.974;2024-03-23T09:15:45;148.90;;;138.05;;
51438;SDS011;38816;51.142;-0.974;2024-03-23T09:18:12;153.90;;;142.57;;
51438;SDS011;38816;51.142;-0.974;2024-03-23T09:20:38;125.22;;;116.35;;
51438;SDS011;38816;51.142;-0.974;2024-03-23T09:23:03;145.32;;;134.40;;
51438;SDS011;38816;51.142;-0.974;2024-03-23T09:25:29;224.02;;;207.20;;
51438;SDS011;38816;51.142;-0.974;2024-03-23T09:27:54;141.65;;;131.23;;
51438;SDS011;38816;51.142;-0.974;2024-03-23T09:30:20;133.23;;;123.50;;
51438;SDS011;38816;51.142;-0.974;2024-03-23T09:32:45;137.60;;;127.97;;
51438;SDS011;38816;51.142;-0.974;2024-03-23T09:35:11;159.63;;;148.20;;
51438;SDS011;38816;51.142;-0.974;2024-03-23T09:37:38;138.60;;;128.93;;
51438;SDS011;38816;51.142;-0.974;2024-03-23T09:40:09;137.68;;;128.07;;
51438;SDS011;38816;51.142;-0.974;2024-03-23T09:42:36;184.43;;;170.90;;
51438;SDS011;38816;51.142;-0.974;2024-03-23T09:45:02;150.82;;;139.38;;
51438;SDS011;38816;51.142;-0.974;2024-03-23T09:47:30;125.43;;;116.40;;
51438;SDS011;38816;51.142;-0.974;2024-03-23T09:49:56;123.93;;;115.22;;
51438;SDS011;38816;51.142;-0.974;2024-03-23T09:52:21;104.50;;;96.45;;
51438;SDS011;38816;51.142;-0.974;2024-03-23T09:54:47;88.20;;;81.70;;
51438;SDS011;38816;51.142;-0.974;2024-03-23T09:57:12;109.80;;;101.72;;
51438;SDS011;38816;51.142;-0.974;2024-03-23T09:59:38;147.20;;;136.05;;
51438;SDS011;38816;51.142;-0.974;2024-03-23T10:02:03;108.18;;;99.75;;
51438;SDS011;38816;51.142;-0.974;2024-03-23T10:04:39;107.28;;;99.07;;
51438;SDS011;38816;51.142;-0.974;2024-03-23T10:07:15;162.77;;;151.38;;
51438;SDS011;38816;51.142;-0.974;2024-03-23T10:09:43;155.52;;;143.05;;
51438;SDS011;38816;51.142;-0.974;2024-03-23T10:14:36;119.57;;;110.40;;
51438;SDS011;38816;51.142;-0.974;2024-03-23T10:19:45;101.18;;;93.57;;
51438;SDS011;38816;51.142;-0.974;2024-03-23T10:22:19;143.93;;;132.63;;
51438;SDS011;38816;51.142;-0.974;2024-03-23T10:24:46;91.30;;;84.55;;
51438;SDS011;38816;51.142;-0.974;2024-03-23T10:27:16;74.70;;;68.82;;
51438;SDS011;38816;51.142;-0.974;2024-03-23T10:29:45;86.05;;;79.13;;
51438;SDS011;38816;51.142;-0.974;2024-03-23T10:32:11;58.00;;;53.47;;
51438;SDS011;38816;51.142;-0.974;2024-03-23T10:34:38;71.38;;;65.57;;
51438;SDS011;38816;51.142;-0.974;2024-03-23T10:37:05;35.13;;;31.90;;
51438;SDS011;38816;51.142;-0.974;2024-03-23T10:39:35;88.53;;;81.40;;
51438;SDS011;38816;51.142;-0.974;2024-03-23T10:42:02;73.25;;;67.40;;
51438;SDS011;38816;51.142;-0.974;2024-03-23T10:44:29;73.53;;;67.78;;
51438;SDS011;38816;51.142;-0.974;2024-03-23T10:46:56;75.72;;;69.82;;
51438;SDS011;38816;51.142;-0.974;2024-03-23T10:49:29;59.33;;;54.72;;
51438;SDS011;38816;51.142;-0.974;2024-03-23T10:52:04;84.03;;;77.05;;
51438;SDS011;38816;51.142;-0.974;2024-03-23T10:54:31;55.50;;;50.97;;
51438;SDS011;38816;51.142;-0.974;2024-03-23T10:57:05;89.30;;;82.57;;
51438;SDS011;38816;51.142;-0.974;2024-03-23T10:59:34;103.63;;;95.45;;
51438;SDS011;38816;51.142;-0.974;2024-03-23T11:02:02;45.28;;;41.88;;
51438;SDS011;38816;51.142;-0.974;2024-03-23T11:04:29;92.03;;;84.95;;
51438;SDS011;38816;51.142;-0.974;2024-03-23T11:06:59;65.60;;;60.53;;
51438;SDS011;38816;51.142;-0.974;2024-03-23T11:12:13;44.67;;;40.35;;
51438;SDS011;38816;51.142;-0.974;2024-03-23T11:17:21;36.92;;;33.28;;
51438;SDS011;38816;51.142;-0.974;2024-03-23T11:25:02;33.72;;;30.60;;
51438;SDS011;38816;51.142;-0.974;2024-03-23T11:27:28;34.80;;;32.03;;
51438;SDS011;38816;51.142;-0.974;2024-03-23T11:29:53;25.25;;;21.80;;
51438;SDS011;38816;51.142;-0.974;2024-03-23T11:32:19;38.95;;;35.80;;
51438;SDS011;38816;51.142;-0.974;2024-03-23T11:34:44;36.63;;;32.78;;
51438;SDS011;38816;51.142;-0.974;2024-03-23T11:37:10;60.22;;;55.05;;
51438;SDS011;38816;51.142;-0.974;2024-03-23T11:39:35;103.25;;;95.93;;
51438;SDS011;38816;51.142;-0.974;2024-03-23T11:42:01;89.03;;;82.82;;
51438;SDS011;38816;51.142;-0.974;2024-03-23T11:44:26;108.38;;;100.32;;
51438;SDS011;38816;51.142;-0.974;2024-03-23T11:46:52;91.82;;;85.28;;
51438;SDS011;38816;51.142;-0.974;2024-03-23T11:49:24;89.75;;;83.55;;
51438;SDS011;38816;51.142;-0.974;2024-03-23T11:51:51;104.05;;;96.78;;
51438;SDS011;38816;51.142;-0.974;2024-03-23T11:54:21;121.32;;;112.68;;
51438;SDS011;38816;51.142;-0.974;2024-03-23T11:56:57;117.25;;;109.00;;
51438;SDS011;38816;51.142;-0.974;2024-03-23T11:59:31;109.50;;;102.03;;
51438;SDS011;38816;51.142;-0.974;2024-03-23T12:02:00;94.47;;;87.68;;
51438;SDS011;38816;51.142;-0.974;2024-03-23T12:04:29;112.03;;;103.95;;
51438;SDS011;38816;51.142;-0.974;2024-03-23T12:09:46;93.43;;;87.05;;
51438;SDS011;38816;51.142;-0.974;2024-03-23T12:12:16;87.82;;;81.55;;
51438;SDS011;38816;51.142;-0.974;2024-03-23T12:14:46;105.78;;;98.28;;
51438;SDS011;38816;51.142;-0.974;2024-03-23T12:17:26;109.50;;;101.90;;
51438;SDS011;38816;51.142;-0.974;2024-03-23T12:26:35;96.82;;;90.28;;
51438;SDS011;38816;51.142;-0.974;2024-03-23T12:29:02;92.55;;;85.93;;
51438;SDS011;38816;51.142;-0.974;2024-03-23T12:31:28;95.05;;;88.32;;
51438;SDS011;38816;51.142;-0.974;2024-03-23T12:33:53;129.88;;;120.90;;
51438;SDS011;38816;51.142;-0.974;2024-03-23T12:36:18;89.15;;;82.78;;
51438;SDS011;38816;51.142;-0.974;2024-03-23T12:38:44;68.32;;;63.67;;
51438;SDS011;38816;51.142;-0.974;2024-03-23T12:41:09;265.88;;;242.32;;
51438;SDS011;38816;51.142;-0.974;2024-03-23T12:43:36;126.90;;;117.55;;
51438;SDS011;38816;51.142;-0.974;2024-03-23T12:46:02;99.78;;;92.70;;
51438;SDS011;38816;51.142;-0.974;2024-03-23T12:48:28;91.97;;;86.00;;
51438;SDS011;38816;51.142;-0.974;2024-03-23T12:50:56;99.00;;;92.47;;
51438;SDS011;38816;51.142;-0.974;2024-03-23T12:53:22;124.57;;;116.50;;
51438;SDS011;38816;51.142;-0.974;2024-03-23T12:55:48;101.85;;;95.07;;
51438;SDS011;38816;51.142;-0.974;2024-03-23T12:58:13;152.02;;;141.88;;
51438;SDS011;38816;51.142;-0.974;2024-03-23T13:00:39;183.25;;;171.43;;
51438;SDS011;38816;51.142;-0.974;2024-03-23T13:03:04;183.60;;;171.70;;
51438;SDS011;38816;51.142;-0.974;2024-03-23T13:05:30;178.23;;;166.57;;
51438;SDS011;38816;51.142;-0.974;2024-03-23T13:07:55;197.15;;;182.43;;
51438;SDS011;38816;51.142;-0.974;2024-03-23T13:10:21;156.98;;;146.18;;
51438;SDS011;38816;51.142;-0.974;2024-03-23T13:12:47;261.70;;;241.13;;
51438;SDS011;38816;51.142;-0.974;2024-03-23T13:15:12;162.20;;;151.65;;
51438;SDS011;38816;51.142;-0.974;2024-03-23T13:17:37;157.13;;;146.40;;
51438;SDS011;38816;51.142;-0.974;2024-03-23T13:20:03;220.40;;;203.90;;
51438;SDS011;38816;51.142;-0.974;2024-03-23T13:22:29;132.20;;;123.53;;
51438;SDS011;38816;51.142;-0.974;2024-03-23T13:24:55;135.93;;;126.70;;
51438;SDS011;38816;51.142;-0.974;2024-03-23T13:27:20;129.25;;;120.55;;
51438;SDS011;38816;51.142;-0.974;2024-03-23T13:29:46;106.05;;;98.82;;
51438;SDS011;38816;51.142;-0.974;2024-03-23T13:32:12;80.60;;;74.70;;
51438;SDS011;38816;51.142;-0.974;2024-03-23T13:34:37;95.80;;;87.50;;
51438;SDS011;38816;51.142;-0.974;2024-03-23T13:37:03;18.15;;;15.85;;
51438;SDS011;38816;51.142;-0.974;2024-03-23T13:39:28;26.10;;;23.95;;
51438;SDS011;38816;51.142;-0.974;2024-03-23T13:41:54;21.73;;;19.38;;
51438;SDS011;38816;51.142;-0.974;2024-03-23T13:44:20;15.15;;;13.85;;
51438;SDS011;38816;51.142;-0.974;2024-03-23T13:46:46;40.85;;;36.53;;
51438;SDS011;38816;51.142;-0.974;2024-03-23T13:49:25;18.25;;;16.98;;
51438;SDS011;38816;51.142;-0.974;2024-03-23T13:51:52;41.78;;;38.50;;
51438;SDS011;38816;51.142;-0.974;2024-03-23T13:54:19;21.40;;;19.95;;
51438;SDS011;38816;51.142;-0.974;2024-03-23T13:56:44;33.03;;;30.73;;
51438;SDS011;38816;51.142;-0.974;2024-03-23T13:59:10;45.60;;;42.58;;
51438;SDS011;38816;51.142;-0.974;2024-03-23T14:01:35;60.85;;;56.83;;
51438;SDS011;38816;51.142;-0.974;2024-03-23T14:04:01;83.45;;;77.97;;
51438;SDS011;38816;51.142;-0.974;2024-03-23T14:06:26;154.75;;;144.68;;
51438;SDS011;38816;51.142;-0.974;2024-03-23T14:08:52;160.43;;;150.07;;
51438;SDS011;38816;51.142;-0.974;2024-03-23T14:11:18;142.88;;;133.57;;
51438;SDS011;38816;51.142;-0.974;2024-03-23T14:13:43;151.00;;;141.20;;
51438;SDS011;38816;51.142;-0.974;2024-03-23T14:16:09;162.23;;;151.57;;
51438;SDS011;38816;51.142;-0.974;2024-03-23T14:18:35;139.60;;;130.57;;
51438;SDS011;38816;51.142;-0.974;2024-03-23T14:21:00;132.35;;;123.55;;
51438;SDS011;38816;51.142;-0.974;2024-03-23T14:23:26;143.55;;;134.25;;
51438;SDS011;38816;51.142;-0.974;2024-03-23T14:25:54;155.13;;;144.63;;
51438;SDS011;38816;51.142;-0.974;2024-03-23T14:28:22;133.35;;;124.53;;
51438;SDS011;38816;51.142;-0.974;2024-03-23T14:30:49;144.32;;;134.93;;
51438;SDS011;38816;51.142;-0.974;2024-03-23T14:33:15;129.90;;;121.40;;
51438;SDS011;38816;51.142;-0.974;2024-03-23T14:35:41;100.78;;;94.00;;
51438;SDS011;38816;51.142;-0.974;2024-03-23T14:38:07;106.22;;;99.20;;
51438;SDS011;38816;51.142;-0.974;2024-03-23T14:40:32;120.07;;;112.10;;
51438;SDS011;38816;51.142;-0.974;2024-03-23T14:42:58;121.97;;;113.90;;
51438;SDS011;38816;51.142;-0.974;2024-03-23T14:45:23;109.60;;;102.32;;
51438;SDS011;38816;51.142;-0.974;2024-03-23T14:47:52;115.15;;;107.50;;
51438;SDS011;38816;51.142;-0.974;2024-03-23T14:50:18;119.88;;;112.07;;
51438;SDS011;38816;51.142;-0.974;2024-03-23T14:52:47;122.40;;;114.32;;
51438;SDS011;38816;51.142;-0.974;2024-03-23T14:55:12;112.53;;;104.72;;
51438;SDS011;38816;51.142;-0.974;2024-03-23T14:57:39;119.20;;;111.03;;
51438;SDS011;38816;51.142;-0.974;2024-03-23T15:00:08;117.22;;;109.45;;
51438;SDS011;38816;51.142;-0.974;2024-03-23T15:02:36;119.22;;;111.40;;
51438;SDS011;38816;51.142;-0.974;2024-03-23T15:05:01;128.45;;;120.07;;
51438;SDS011;38816;51.142;-0.974;2024-03-23T15:07:29;106.13;;;99.13;;
51438;SDS011;38816;51.142;-0.974;2024-03-23T15:09:55;125.72;;;117.35;;
51438;SDS011;38816;51.142;-0.974;2024-03-23T15:12:21;134.60;;;125.63;;
51438;SDS011;38816;51.142;-0.974;2024-03-23T15:14:46;122.13;;;114.00;;